METAR Data
IDs: Format: Raw Decoded Include TAF

Data at: 2132 UTC 10 May 2021

KLAA 101945Z 120015KT 10SM OVC013 07/04 A3008
KLAA 101745Z 11016G20KT 10SM OVC015 07/03 A3011
KLAA 101545Z 08011KT 10SM OVC008 05/03 A3013
KLAA 101457Z 10011KT 10SM OVC009 05/03 A3014
KLAA 100345Z 060012KT 10SM SCT060 BKN095 09/01 A3007
KLAA 100255Z 070011KT 10SM OVC065 11/M01 A3007
KLAA 100145Z 070009KT 10SM BKN070 OVC090 12/M01 A3004
KLAA 100045Z 06009KT 10SM OVC060 13/M01 A3004
KLAA 092045Z 03010G17KT 10SM BKN060 16/01 A3003
KLAA 091156Z AUTO 03008KT 10SM FEW060 OVC090 06/02 A3006
KLAA 091117Z AUTO 01009KT 10SM SCT060 OVC085 07/02 A3005
KLAA 090957Z AUTO 01012G20KT 10SM OVC021 08/04 A3000